createdAt,value
2018-07-30T00:01:21.603Z,99.90
2018-07-30T00:03:50.293Z,99.90
2018-07-30T00:06:18.949Z,99.90
2018-07-30T00:08:47.635Z,99.90
2018-07-30T00:11:16.307Z,99.90
2018-07-30T00:13:45.023Z,99.90
2018-07-30T00:16:13.678Z,99.90
2018-07-30T00:18:42.345Z,99.90
2018-07-30T00:21:11.056Z,99.90
2018-07-30T00:23:39.742Z,99.90
2018-07-30T00:26:08.425Z,99.90
2018-07-30T00:28:37.078Z,99.90
2018-07-30T00:31:05.871Z,99.90
2018-07-30T00:33:34.559Z,99.90
2018-07-30T00:36:03.263Z,99.90
2018-07-30T00:38:31.888Z,99.90
2018-07-30T00:41:00.565Z,99.90
2018-07-30T00:43:29.212Z,99.90
2018-07-30T00:45:57.835Z,99.90
2018-07-30T00:48:26.496Z,99.90
2018-07-30T00:50:55.120Z,99.90
2018-07-30T00:53:23.801Z,99.90
2018-07-30T00:55:52.469Z,99.90
2018-07-30T00:58:21.145Z,99.90
2018-07-30T01:00:49.912Z,99.90
2018-07-30T01:03:18.598Z,99.90
2018-07-30T01:05:47.257Z,99.90
2018-07-30T01:08:15.897Z,99.90
2018-07-30T01:10:44.584Z,99.90
2018-07-30T01:13:13.247Z,99.90
2018-07-30T01:15:42.021Z,99.90
2018-07-30T01:18:10.959Z,99.90
2018-07-30T01:20:39.965Z,99.90
2018-07-30T01:23:08.966Z,99.90
2018-07-30T01:25:37.617Z,99.90
2018-07-30T01:28:06.357Z,99.90
2018-07-30T01:30:35.006Z,99.90
2018-07-30T01:33:03.686Z,99.90
2018-07-30T01:35:32.416Z,99.90
2018-07-30T01:38:01.061Z,99.90
2018-07-30T01:40:29.723Z,99.90
2018-07-30T01:42:58.403Z,99.90
2018-07-30T01:45:27.084Z,99.90
2018-07-30T01:47:55.744Z,99.90
2018-07-30T01:50:24.428Z,99.90
2018-07-30T01:52:53.142Z,99.90
2018-07-30T01:55:21.878Z,99.90
2018-07-30T01:57:50.487Z,99.90
2018-07-30T02:00:19.169Z,99.90
2018-07-30T02:02:47.842Z,99.90
2018-07-30T02:05:16.557Z,99.90
2018-07-30T02:07:45.204Z,99.90
2018-07-30T02:10:13.913Z,99.90
2018-07-30T02:12:42.645Z,99.90
2018-07-30T02:15:13.411Z,99.90
2018-07-30T02:17:42.194Z,99.90
2018-07-30T02:20:10.864Z,99.90
2018-07-30T02:22:39.539Z,99.90
2018-07-30T02:25:08.801Z,99.90
2018-07-30T02:27:37.571Z,99.90
2018-07-30T02:30:07.617Z,99.90
2018-07-30T02:32:36.358Z,99.90
2018-07-30T02:35:06.224Z,99.90
2018-07-30T02:37:34.941Z,99.90
2018-07-30T02:40:03.757Z,99.90
2018-07-30T02:42:32.464Z,99.90
2018-07-30T02:45:01.318Z,99.90
2018-07-30T02:47:29.978Z,99.90
2018-07-30T02:49:58.748Z,99.90
2018-07-30T02:52:27.437Z,99.90
2018-07-30T02:54:56.221Z,99.90
2018-07-30T02:57:24.836Z,99.90
2018-07-30T02:59:53.476Z,99.90
2018-07-30T03:02:22.162Z,99.90
2018-07-30T03:04:50.882Z,99.90
2018-07-30T03:07:19.553Z,99.90
2018-07-30T03:09:48.244Z,99.90
2018-07-30T03:12:16.928Z,99.90
2018-07-30T03:14:45.607Z,99.90
2018-07-30T03:17:14.319Z,99.90
2018-07-30T03:19:42.974Z,99.90
2018-07-30T03:22:11.616Z,99.90
2018-07-30T03:24:40.405Z,99.90
2018-07-30T03:27:09.098Z,99.90
2018-07-30T03:29:37.832Z,99.90
2018-07-30T03:32:06.558Z,99.90
2018-07-30T03:34:35.303Z,99.90
2018-07-30T03:37:03.995Z,99.90
2018-07-30T03:39:32.770Z,99.90
2018-07-30T03:42:01.513Z,99.90
2018-07-30T03:44:33.222Z,99.90
2018-07-30T03:47:01.919Z,99.90
2018-07-30T03:49:30.577Z,99.90
2018-07-30T03:51:59.258Z,99.90
2018-07-30T03:54:27.941Z,99.90
2018-07-30T03:56:56.633Z,99.90
2018-07-30T03:59:25.305Z,99.90
2018-07-30T04:01:53.980Z,99.90
2018-07-30T04:04:22.613Z,99.90
2018-07-30T04:06:51.265Z,99.90
2018-07-30T04:09:20.110Z,99.90
2018-07-30T04:11:48.815Z,99.90
2018-07-30T04:14:17.449Z,99.90
2018-07-30T04:16:49.212Z,99.90
2018-07-30T04:19:18.021Z,99.90
2018-07-30T04:21:46.854Z,99.90
2018-07-30T04:24:15.584Z,99.90
2018-07-30T04:26:45.722Z,99.90
2018-07-30T04:29:15.181Z,99.90
2018-07-30T04:31:43.927Z,99.90
2018-07-30T04:34:12.601Z,99.90
2018-07-30T04:36:41.289Z,99.90
2018-07-30T04:39:13.908Z,99.90
2018-07-30T04:41:42.949Z,99.90
2018-07-30T04:44:11.662Z,99.90
2018-07-30T04:46:40.373Z,99.90
2018-07-30T04:49:09.097Z,99.90
2018-07-30T04:51:37.893Z,99.90
2018-07-30T04:54:06.985Z,99.90
2018-07-30T04:56:35.748Z,99.90
2018-07-30T04:59:04.717Z,99.90
2018-07-30T05:01:33.383Z,99.90
2018-07-30T05:04:02.078Z,99.90
2018-07-30T05:06:30.733Z,99.90
2018-07-30T05:08:59.485Z,99.90
2018-07-30T05:11:28.162Z,99.90
2018-07-30T05:13:56.821Z,99.90
2018-07-30T05:16:25.506Z,99.90
2018-07-30T05:18:54.161Z,99.90
2018-07-30T05:21:22.837Z,99.90
2018-07-30T05:26:19.884Z,99.90
2018-07-30T05:28:48.532Z,99.90
2018-07-30T05:31:17.258Z,99.90
2018-07-30T05:33:45.949Z,99.90
2018-07-30T05:36:14.634Z,99.90
2018-07-30T05:38:43.318Z,99.90
2018-07-30T05:41:12.030Z,99.90
2018-07-30T05:43:40.713Z,99.90
2018-07-30T05:46:09.405Z,99.90
2018-07-30T05:48:38.120Z,99.90
2018-07-30T05:51:06.933Z,99.90
2018-07-30T05:53:35.623Z,99.90
2018-07-30T05:56:04.567Z,99.90
2018-07-30T05:58:33.216Z,99.90
2018-07-30T06:01:01.897Z,99.90
2018-07-30T06:03:31.305Z,99.90
2018-07-30T06:06:00.453Z,99.90
2018-07-30T06:08:29.676Z,99.90
2018-07-30T06:10:58.844Z,99.90
2018-07-30T06:13:27.974Z,99.90
2018-07-30T06:15:56.677Z,99.90
2018-07-30T06:18:25.453Z,99.90
2018-07-30T06:20:54.207Z,99.90
2018-07-30T06:25:51.258Z,99.90
2018-07-30T06:28:19.979Z,99.90
2018-07-30T06:30:48.660Z,99.90
2018-07-30T06:33:17.314Z,99.90
2018-07-30T06:35:45.981Z,99.90
2018-07-30T06:40:42.989Z,99.90
2018-07-30T06:43:11.680Z,99.90
2018-07-30T06:45:40.382Z,99.90
2018-07-30T06:48:09.069Z,99.90
2018-07-30T06:50:37.780Z,99.90
2018-07-30T06:53:06.526Z,99.90
2018-07-30T06:55:35.194Z,99.90
2018-07-30T06:58:03.917Z,99.90
2018-07-30T07:00:32.628Z,99.90
2018-07-30T07:03:01.291Z,99.90
2018-07-30T07:05:29.958Z,99.90
2018-07-30T07:07:58.684Z,99.60
2018-07-30T07:10:27.338Z,99.20
2018-07-30T07:12:55.999Z,99.00
2018-07-30T07:15:24.760Z,98.60
2018-07-30T07:20:21.754Z,97.10
2018-07-30T07:22:50.442Z,96.50
2018-07-30T07:25:19.091Z,96.20
2018-07-30T07:30:16.090Z,95.40
2018-07-30T07:32:44.729Z,94.60
2018-07-30T07:35:13.407Z,93.80
2018-07-30T07:37:42.093Z,93.50
2018-07-30T07:40:10.835Z,92.30
2018-07-30T07:42:39.511Z,92.00
2018-07-30T07:45:08.740Z,91.00
2018-07-30T07:47:37.419Z,90.20
2018-07-30T07:50:06.418Z,89.70
2018-07-30T07:52:35.090Z,89.10
2018-07-30T07:55:03.821Z,88.50
2018-07-30T07:57:32.476Z,87.30
2018-07-30T08:00:01.158Z,85.30
2018-07-30T08:02:29.899Z,85.80
2018-07-30T08:04:58.546Z,84.30
2018-07-30T08:07:27.208Z,83.50
2018-07-30T08:09:55.997Z,84.00
2018-07-30T08:12:24.559Z,81.80
2018-07-30T08:14:53.234Z,80.70
2018-07-30T08:17:21.923Z,81.10
2018-07-30T08:19:50.573Z,81.30
2018-07-30T08:22:19.327Z,80.50
2018-07-30T08:24:47.974Z,79.30
2018-07-30T08:27:16.734Z,80.00
2018-07-30T08:29:45.445Z,74.30
2018-07-30T08:32:14.099Z,72.80
2018-07-30T08:34:42.749Z,71.70
2018-07-30T08:37:11.431Z,69.70
2018-07-30T08:39:40.070Z,69.30
2018-07-30T08:42:08.729Z,68.50
2018-07-30T08:44:37.433Z,67.50
2018-07-30T08:47:06.202Z,67.40
2018-07-30T08:49:34.863Z,66.40
2018-07-30T08:52:03.572Z,65.30
2018-07-30T08:54:32.275Z,65.40
2018-07-30T08:57:00.917Z,66.10
2018-07-30T08:59:29.587Z,66.00
2018-07-30T09:01:58.229Z,65.40
2018-07-30T09:04:26.873Z,63.70
2018-07-30T09:06:55.539Z,62.50
2018-07-30T09:09:24.209Z,61.30
2018-07-30T09:11:52.870Z,60.30
2018-07-30T09:14:21.542Z,60.50
2018-07-30T09:16:50.210Z,60.90
2018-07-30T09:19:18.845Z,59.00
2018-07-30T09:21:47.578Z,58.80
2018-07-30T09:24:16.241Z,58.00
2018-07-30T09:26:45.422Z,57.90
2018-07-30T09:29:14.138Z,58.10
2018-07-30T09:31:42.794Z,56.50
2018-07-30T09:34:11.485Z,55.40
2018-07-30T09:36:40.165Z,55.50
2018-07-30T09:39:10.626Z,56.60
2018-07-30T09:41:39.400Z,54.70
2018-07-30T09:44:08.105Z,55.50
2018-07-30T09:46:36.765Z,54.10
2018-07-30T09:49:05.478Z,53.80
2018-07-30T09:51:34.151Z,53.30
2018-07-30T09:54:02.800Z,52.40
2018-07-30T09:56:31.497Z,52.60
2018-07-30T09:59:00.181Z,52.20
2018-07-30T10:01:30.930Z,52.40
2018-07-30T10:04:00.537Z,51.50
2018-07-30T10:06:29.249Z,50.30
2018-07-30T10:08:57.914Z,49.80
2018-07-30T10:11:26.639Z,50.40
2018-07-30T10:13:55.297Z,50.50
2018-07-30T10:16:23.944Z,50.70
2018-07-30T10:18:52.628Z,51.10
2018-07-30T10:21:21.311Z,51.10
2018-07-30T10:23:50.010Z,50.80
2018-07-30T10:26:18.620Z,50.70
2018-07-30T10:28:47.333Z,50.90
2018-07-30T10:31:15.966Z,50.40
2018-07-30T10:33:44.595Z,49.60
2018-07-30T10:36:13.286Z,49.20
2018-07-30T10:38:42.009Z,49.30
2018-07-30T10:41:10.661Z,49.50
2018-07-30T10:43:39.374Z,49.00
2018-07-30T10:46:08.057Z,47.60
2018-07-30T10:48:36.702Z,46.30
2018-07-30T10:51:05.432Z,45.10
2018-07-30T10:53:34.112Z,44.80
2018-07-30T10:56:02.737Z,44.00
2018-07-30T10:58:31.442Z,43.80
2018-07-30T11:01:00.141Z,43.30
2018-07-30T11:03:28.758Z,42.50
2018-07-30T11:05:57.494Z,42.10
2018-07-30T11:08:26.182Z,40.10
2018-07-30T11:10:54.841Z,39.80
2018-07-30T11:13:23.529Z,41.10
2018-07-30T11:15:52.173Z,37.70
2018-07-30T11:18:20.798Z,37.90
2018-07-30T11:20:49.456Z,39.90
2018-07-30T11:23:18.091Z,38.20
2018-07-30T11:25:46.737Z,38.10
2018-07-30T11:28:15.445Z,38.20
2018-07-30T11:30:44.079Z,38.30
2018-07-30T11:33:12.701Z,37.80
2018-07-30T11:35:41.368Z,37.60
2018-07-30T11:38:10.022Z,37.40
2018-07-30T11:40:38.658Z,37.10
2018-07-30T11:43:07.341Z,37.10
2018-07-30T11:45:35.981Z,35.60
2018-07-30T11:48:04.650Z,34.80
2018-07-30T11:50:33.300Z,34.70
2018-07-30T11:53:01.985Z,35.50
2018-07-30T11:55:30.610Z,34.40
2018-07-30T11:57:59.312Z,34.70
2018-07-30T12:00:27.950Z,33.10
2018-07-30T12:02:56.577Z,33.40
2018-07-30T12:05:25.256Z,33.40
2018-07-30T12:07:53.899Z,33.50
2018-07-30T12:10:22.576Z,35.30
2018-07-30T12:12:51.204Z,36.40
2018-07-30T12:15:19.854Z,36.20
2018-07-30T12:17:48.503Z,36.00
2018-07-30T12:20:17.209Z,35.40
2018-07-30T12:22:45.838Z,35.20
2018-07-30T12:25:14.542Z,34.60
2018-07-30T12:27:43.189Z,34.40
2018-07-30T12:30:11.865Z,34.00
2018-07-30T12:32:40.489Z,34.60
2018-07-30T12:35:09.130Z,34.50
2018-07-30T12:37:37.804Z,34.10
2018-07-30T12:40:06.470Z,33.60
2018-07-30T12:42:35.156Z,34.70
2018-07-30T12:45:03.895Z,34.20
2018-07-30T12:47:32.536Z,33.90
2018-07-30T12:50:01.182Z,33.40
2018-07-30T12:52:29.838Z,33.20
2018-07-30T12:54:58.520Z,32.80
2018-07-30T12:57:27.213Z,33.20
2018-07-30T12:59:55.872Z,33.50
2018-07-30T13:02:24.533Z,33.90
2018-07-30T13:04:53.184Z,34.50
2018-07-30T13:07:21.824Z,34.50
2018-07-30T13:09:50.497Z,35.00
2018-07-30T13:12:19.138Z,35.70
2018-07-30T13:14:47.823Z,36.70
2018-07-30T13:17:16.463Z,37.00
2018-07-30T13:19:45.129Z,37.10
2018-07-30T13:22:13.889Z,36.80
2018-07-30T13:24:42.662Z,37.10
2018-07-30T13:27:11.321Z,35.80
2018-07-30T13:29:39.981Z,36.70
2018-07-30T13:32:08.623Z,35.60
2018-07-30T13:34:37.301Z,36.40
2018-07-30T13:37:06.031Z,36.30
2018-07-30T13:39:34.713Z,36.20
2018-07-30T13:42:03.373Z,36.10
2018-07-30T13:44:32.069Z,36.50
2018-07-30T13:47:00.708Z,35.80
2018-07-30T13:49:29.369Z,35.40
2018-07-30T13:51:58.093Z,34.40
2018-07-30T13:54:26.806Z,34.10
2018-07-30T13:56:55.430Z,34.40
2018-07-30T13:59:24.072Z,33.90
2018-07-30T14:01:52.760Z,33.40
2018-07-30T14:04:21.437Z,33.90
2018-07-30T14:06:50.126Z,32.50
2018-07-30T14:09:18.804Z,32.40
2018-07-30T14:11:47.431Z,30.80
2018-07-30T14:14:16.064Z,30.90
2018-07-30T14:16:44.693Z,31.50
2018-07-30T14:19:17.031Z,30.30
2018-07-30T14:21:45.822Z,30.30
2018-07-30T14:24:14.521Z,29.70
2018-07-30T14:26:43.190Z,30.00
2018-07-30T14:29:11.817Z,29.60
2018-07-30T14:31:40.510Z,30.00
2018-07-30T14:34:09.145Z,29.40
2018-07-30T14:36:37.905Z,29.20
2018-07-30T14:39:09.101Z,29.20
2018-07-30T14:41:37.810Z,29.10
2018-07-30T14:44:06.777Z,29.70
2018-07-30T14:46:35.587Z,28.80
2018-07-30T14:49:04.290Z,29.40
2018-07-30T14:51:32.999Z,28.70
2018-07-30T14:54:01.614Z,28.80
2018-07-30T14:56:30.262Z,29.00
2018-07-30T14:58:58.915Z,28.90
2018-07-30T15:01:27.618Z,28.60
2018-07-30T15:03:56.296Z,27.70
2018-07-30T15:06:24.950Z,28.20
2018-07-30T15:08:53.585Z,28.50
2018-07-30T15:11:22.317Z,29.40
2018-07-30T15:13:50.976Z,29.40
2018-07-30T15:16:19.613Z,31.00
2018-07-30T15:18:48.274Z,30.80
2018-07-30T15:21:16.910Z,30.00
2018-07-30T15:23:45.586Z,30.20
2018-07-30T15:26:14.245Z,29.90
2018-07-30T15:28:42.895Z,29.90
2018-07-30T15:31:11.523Z,30.40
2018-07-30T15:33:40.209Z,30.50
2018-07-30T15:36:08.872Z,31.40
2018-07-30T15:38:37.617Z,31.30
2018-07-30T15:41:06.383Z,31.00
2018-07-30T15:43:35.045Z,31.10
2018-07-30T15:46:03.673Z,30.80
2018-07-30T15:48:32.384Z,29.80
2018-07-30T15:51:01.046Z,29.10
2018-07-30T15:53:29.709Z,28.60
2018-07-30T15:55:58.409Z,28.80
2018-07-30T15:58:27.045Z,28.30
2018-07-30T16:00:55.692Z,28.70
2018-07-30T16:03:24.329Z,28.40
2018-07-30T16:05:53.060Z,28.00
2018-07-30T16:08:21.677Z,28.20
2018-07-30T16:10:50.508Z,28.20
2018-07-30T16:13:19.183Z,28.20
2018-07-30T16:15:47.839Z,28.80
2018-07-30T16:18:16.506Z,28.80
2018-07-30T16:20:45.149Z,28.90
2018-07-30T16:23:13.820Z,29.80
2018-07-30T16:25:42.524Z,30.60
2018-07-30T16:28:11.174Z,31.60
2018-07-30T16:30:39.865Z,31.10
2018-07-30T16:33:08.455Z,31.10
2018-07-30T16:35:37.106Z,30.50
2018-07-30T16:38:05.797Z,29.90
2018-07-30T16:40:34.492Z,30.40
2018-07-30T16:43:03.149Z,31.00
2018-07-30T16:45:31.801Z,31.40
2018-07-30T16:48:00.735Z,31.60
2018-07-30T16:50:29.356Z,31.60
2018-07-30T16:52:57.998Z,30.90
2018-07-30T16:55:26.725Z,30.30
2018-07-30T16:57:55.377Z,30.70
2018-07-30T17:00:24.107Z,30.30
2018-07-30T17:02:53.324Z,31.10
2018-07-30T17:05:22.006Z,31.70
2018-07-30T17:07:51.122Z,32.30
2018-07-30T17:10:20.278Z,33.00
2018-07-30T17:12:49.388Z,33.10
2018-07-30T17:15:18.522Z,34.10
2018-07-30T17:17:47.258Z,34.60
2018-07-30T17:20:16.485Z,34.90
2018-07-30T17:22:45.666Z,35.50
2018-07-30T17:25:15.828Z,35.50
2018-07-30T17:27:45.854Z,35.40
2018-07-30T17:30:14.511Z,36.60
2018-07-30T17:32:43.705Z,36.40
2018-07-30T17:35:13.798Z,35.40
2018-07-30T17:37:49.937Z,35.30
2018-07-30T17:40:18.594Z,35.40
2018-07-30T17:42:47.811Z,35.50
2018-07-30T17:45:16.896Z,35.80
2018-07-30T17:47:47.013Z,36.10
2018-07-30T17:50:16.127Z,36.90
2018-07-30T17:52:44.744Z,37.70
2018-07-30T17:55:13.420Z,37.50
2018-07-30T17:57:42.050Z,37.70
2018-07-30T18:00:11.316Z,38.70
2018-07-30T18:02:39.950Z,39.80
2018-07-30T18:05:09.013Z,39.00
2018-07-30T18:07:37.625Z,39.70
2018-07-30T18:10:06.598Z,39.80
2018-07-30T18:12:35.305Z,39.50
2018-07-30T18:15:04.058Z,39.60
2018-07-30T18:17:32.683Z,39.60
2018-07-30T18:20:01.305Z,39.40
2018-07-30T18:22:30.018Z,39.60
2018-07-30T18:24:58.719Z,40.60
2018-07-30T18:27:27.379Z,41.60
2018-07-30T18:29:55.989Z,41.80
2018-07-30T18:32:24.665Z,41.90
2018-07-30T18:34:53.330Z,43.10
2018-07-30T18:37:22.120Z,44.00
2018-07-30T18:39:50.772Z,44.60
2018-07-30T18:42:19.479Z,44.30
2018-07-30T18:44:48.141Z,44.80
2018-07-30T18:47:16.764Z,44.00
2018-07-30T18:49:45.446Z,45.70
2018-07-30T18:52:14.949Z,45.70
2018-07-30T18:54:43.587Z,46.20
2018-07-30T18:57:12.210Z,46.30
2018-07-30T18:59:40.845Z,44.80
2018-07-30T19:02:09.615Z,44.50
2018-07-30T19:04:38.312Z,45.20
2018-07-30T19:07:06.913Z,44.30
2018-07-30T19:09:35.601Z,45.40
2018-07-30T19:12:04.273Z,46.80
2018-07-30T19:14:32.900Z,47.80
2018-07-30T19:17:01.546Z,48.10
2018-07-30T19:19:30.178Z,48.80
2018-07-30T19:21:58.866Z,49.10
2018-07-30T19:24:27.560Z,49.00
2018-07-30T19:26:56.178Z,48.90
2018-07-30T19:29:24.792Z,48.60
2018-07-30T19:31:53.426Z,48.50
2018-07-30T19:34:22.043Z,47.80
2018-07-30T19:36:50.864Z,48.80
2018-07-30T19:39:19.477Z,49.40
2018-07-30T19:41:48.129Z,49.80
2018-07-30T19:44:16.900Z,49.80
2018-07-30T19:46:45.501Z,49.50
2018-07-30T19:49:14.139Z,49.10
2018-07-30T19:51:42.833Z,48.90
2018-07-30T19:54:11.452Z,49.30
2018-07-30T19:56:40.078Z,50.10
2018-07-30T19:59:09.165Z,50.80
2018-07-30T20:01:41.569Z,51.10
2018-07-30T20:04:10.183Z,51.20
2018-07-30T20:06:38.857Z,52.10
2018-07-30T20:09:09.617Z,52.20
2018-07-30T20:11:38.289Z,52.40
2018-07-30T20:14:06.924Z,53.00
2018-07-30T20:16:35.796Z,53.40
2018-07-30T20:19:04.550Z,53.60
2018-07-30T20:21:33.290Z,54.00
2018-07-30T20:24:02.015Z,54.40
2018-07-30T20:26:30.869Z,54.60
2018-07-30T20:28:59.609Z,53.20
2018-07-30T20:31:28.261Z,53.80
2018-07-30T20:33:57.986Z,53.60
2018-07-30T20:36:26.698Z,53.90
2018-07-30T20:38:55.345Z,53.80
2018-07-30T20:41:24.448Z,54.80
2018-07-30T20:43:53.617Z,54.80
2018-07-30T20:46:22.493Z,55.20
2018-07-30T20:48:51.248Z,55.90
2018-07-30T20:51:19.983Z,56.10
2018-07-30T20:53:48.629Z,56.60
2018-07-30T20:56:17.249Z,57.30
2018-07-30T20:58:45.882Z,57.40
2018-07-30T21:01:14.618Z,57.40
2018-07-30T21:03:43.268Z,57.70
2018-07-30T21:06:11.949Z,57.40
2018-07-30T21:08:40.618Z,57.30
2018-07-30T21:11:09.305Z,57.50
2018-07-30T21:13:37.944Z,58.60
2018-07-30T21:16:06.625Z,58.30
2018-07-30T21:18:35.339Z,58.80
2018-07-30T21:21:04.097Z,59.10
2018-07-30T21:26:01.048Z,60.20
2018-07-30T21:28:29.708Z,60.50
2018-07-30T21:30:58.385Z,61.00
2018-07-30T21:33:27.354Z,61.00
2018-07-30T21:35:56.073Z,61.50
2018-07-30T21:38:24.742Z,62.20
2018-07-30T21:40:54.394Z,63.00
2018-07-30T21:43:23.102Z,63.70
2018-07-30T21:45:52.408Z,64.00
2018-07-30T21:48:21.109Z,64.60
2018-07-30T21:50:49.781Z,65.20
2018-07-30T21:53:18.429Z,65.70
2018-07-30T21:55:47.129Z,66.40
2018-07-30T21:58:15.766Z,67.20
2018-07-30T22:00:49.646Z,67.20
2018-07-30T22:03:18.302Z,68.00
2018-07-30T22:05:51.162Z,69.10
2018-07-30T22:08:19.908Z,70.30
2018-07-30T22:10:48.678Z,71.20
2018-07-30T22:15:45.637Z,73.10
2018-07-30T22:20:42.637Z,74.30
2018-07-30T22:23:11.394Z,75.30
2018-07-30T22:25:40.079Z,76.50
2018-07-30T22:28:08.883Z,77.10
2018-07-30T22:30:37.627Z,78.20
2018-07-30T22:33:06.341Z,79.60
2018-07-30T22:35:35.042Z,80.20
2018-07-30T22:38:03.732Z,81.10
2018-07-30T22:40:32.391Z,82.20
2018-07-30T22:43:01.001Z,83.10
2018-07-30T22:45:29.673Z,84.20
2018-07-30T22:48:05.199Z,85.40
2018-07-30T22:50:34.141Z,86.10
2018-07-30T22:53:02.801Z,86.10
2018-07-30T22:57:59.720Z,87.60
2018-07-30T23:00:28.382Z,88.40
2018-07-30T23:02:57.036Z,89.20
2018-07-30T23:05:25.797Z,90.20
2018-07-30T23:07:54.429Z,90.40
2018-07-30T23:10:23.092Z,90.70
2018-07-30T23:12:51.805Z,90.90
2018-07-30T23:15:20.462Z,91.30
2018-07-30T23:17:49.081Z,91.60
2018-07-30T23:20:17.772Z,92.00
2018-07-30T23:22:46.404Z,92.30
2018-07-30T23:25:15.041Z,92.60
2018-07-30T23:27:43.730Z,92.90
2018-07-30T23:30:12.421Z,93.10
2018-07-30T23:32:41.077Z,93.40
2018-07-30T23:35:09.773Z,93.70
2018-07-30T23:37:38.497Z,94.20
2018-07-30T23:42:35.638Z,95.00
2018-07-30T23:45:04.330Z,95.50
2018-07-30T23:47:32.976Z,95.60
2018-07-30T23:50:01.615Z,95.90
2018-07-30T23:52:30.254Z,95.50
2018-07-30T23:54:58.973Z,95.70
2018-07-30T23:57:27.721Z,96.00
2018-07-30T23:59:56.390Z,96.10
